createdAt,value
2023-04-13T00:01:35.369Z,0.7
2023-04-13T00:04:00.618Z,0.4
2023-04-13T00:06:27.288Z,0.4
2023-04-13T00:08:53.988Z,0.7
2023-04-13T00:11:20.667Z,1
2023-04-13T00:13:47.337Z,0.7
2023-04-13T00:16:14.036Z,0.4
2023-04-13T00:18:40.717Z,0.5
2023-04-13T00:21:07.418Z,0.5
2023-04-13T00:23:34.087Z,0.4
2023-04-13T00:26:00.779Z,0.3
2023-04-13T00:28:27.450Z,0.5
2023-04-13T00:30:54.137Z,0.5
2023-04-13T00:33:20.834Z,0.5
2023-04-13T00:35:46.057Z,0.7
2023-04-13T00:38:12.730Z,0.5
2023-04-13T00:40:39.417Z,0.6
2023-04-13T00:43:06.096Z,0.6
2023-04-13T00:45:32.788Z,0.6
2023-04-13T00:47:59.474Z,0.9
2023-04-13T00:50:26.151Z,0.7
2023-04-13T00:52:52.836Z,0.4
2023-04-13T00:55:19.522Z,0.5
2023-04-13T00:57:46.213Z,0.6
2023-04-13T01:00:12.889Z,0.4
2023-04-13T01:02:39.574Z,0.5
2023-04-13T01:05:06.269Z,0.5
2023-04-13T01:07:31.488Z,0.4
2023-04-13T01:09:58.179Z,0.4
2023-04-13T01:12:24.847Z,0.4
2023-04-13T01:14:51.540Z,0.5
2023-04-13T01:17:18.239Z,0.3
2023-04-13T01:19:44.916Z,0.5
2023-04-13T01:22:11.595Z,0.5
2023-04-13T01:24:38.289Z,0.5
2023-04-13T01:29:31.671Z,0.3
2023-04-13T01:31:58.338Z,0.3
2023-04-13T01:34:25.038Z,0.6
2023-04-13T01:36:51.722Z,0.4
2023-04-13T01:39:16.934Z,0.3
2023-04-13T01:41:43.626Z,0.4
2023-04-13T01:44:10.303Z,0.6
2023-04-13T01:46:36.988Z,0.4
2023-04-13T01:49:03.665Z,0.4
2023-04-13T01:51:30.362Z,0.3
2023-04-13T01:53:57.044Z,0.4
2023-04-13T01:56:23.722Z,0.4
2023-04-13T01:58:50.408Z,0.5
2023-04-13T02:01:17.092Z,0.4
2023-04-13T02:03:43.784Z,0.4
2023-04-13T02:06:10.460Z,0.3
2023-04-13T02:08:37.147Z,0.4
2023-04-13T02:11:02.382Z,0.5
2023-04-13T02:13:29.062Z,0.4
2023-04-13T02:15:55.740Z,0.6
2023-04-13T02:18:22.420Z,0.4
2023-04-13T02:20:49.113Z,0.4
2023-04-13T02:23:15.795Z,0.5
2023-04-13T02:25:42.501Z,0.5
2023-04-13T02:28:09.156Z,0.6
2023-04-13T02:30:35.864Z,0.3
2023-04-13T02:33:02.548Z,0.7
2023-04-13T02:35:29.229Z,0.6
2023-04-13T02:37:55.901Z,0.4
2023-04-13T02:40:22.596Z,0.5
2023-04-13T02:42:49.286Z,0.5
2023-04-13T02:45:14.526Z,0.4
2023-04-13T02:47:41.182Z,0.2
2023-04-13T02:50:07.865Z,0.6
2023-04-13T02:52:34.543Z,0.4
2023-04-13T02:55:01.232Z,0.4
2023-04-13T02:57:27.905Z,0.6
2023-04-13T03:02:21.304Z,0.6
2023-04-13T03:04:47.968Z,0.5
2023-04-13T03:07:14.687Z,0.7
2023-04-13T03:12:08.053Z,0.5
2023-04-13T03:14:34.701Z,0.7
2023-04-13T03:16:59.918Z,0.3
2023-04-13T03:19:26.628Z,0.7
2023-04-13T03:21:53.288Z,0.6
2023-04-13T03:26:46.665Z,0.4
2023-04-13T03:31:38.623Z,0.6
2023-04-13T03:34:03.871Z,0.5
2023-04-13T03:36:29.084Z,0.6
2023-04-13T03:38:55.776Z,0.7
2023-04-13T03:41:22.443Z,0.6
2023-04-13T03:43:49.131Z,1
2023-04-13T03:46:15.824Z,0.6
2023-04-13T03:48:42.519Z,0.9
2023-04-13T03:51:09.178Z,0.7
2023-04-13T03:53:35.887Z,0.7
2023-04-13T03:56:02.554Z,0.7
2023-04-13T03:58:29.235Z,0.5
2023-04-13T04:00:54.501Z,0.5
2023-04-13T04:03:19.719Z,0.6
2023-04-13T04:05:46.410Z,0.5
2023-04-13T04:08:13.096Z,0.6
2023-04-13T04:10:39.778Z,0.9
2023-04-13T04:13:06.528Z,0.6
2023-04-13T04:15:33.131Z,0.7
2023-04-13T04:17:59.837Z,0.6
2023-04-13T04:20:26.516Z,0.6
2023-04-13T04:22:53.196Z,0.4
2023-04-13T04:25:19.883Z,0.5
2023-04-13T04:27:46.581Z,0.8
2023-04-13T04:30:13.250Z,0.8
2023-04-13T04:32:39.931Z,0.8
2023-04-13T04:35:05.178Z,0.8
2023-04-13T04:37:31.854Z,0.8
2023-04-13T04:39:58.542Z,0.9
2023-04-13T04:42:25.235Z,0.6
2023-04-13T04:44:51.897Z,0.5
2023-04-13T04:47:18.586Z,0.6
2023-04-13T04:49:45.271Z,1.3
2023-04-13T04:52:11.970Z,0.5
2023-04-13T04:54:38.636Z,0.8
2023-04-13T04:57:05.329Z,0.8
2023-04-13T04:59:32.010Z,0.8
2023-04-13T05:01:58.703Z,1.1
2023-04-13T05:04:25.386Z,0.5
2023-04-13T05:06:50.610Z,0.8
2023-04-13T05:09:17.274Z,1.3
2023-04-13T05:11:43.982Z,0.8
2023-04-13T05:14:10.660Z,0.6
2023-04-13T05:16:37.350Z,0.8
2023-04-13T05:19:04.046Z,1.2
2023-04-13T05:21:30.706Z,0.9
2023-04-13T05:23:57.414Z,1.1
2023-04-13T05:26:24.090Z,1.1
2023-04-13T05:28:50.783Z,1.1
2023-04-13T05:31:17.445Z,1.5
2023-04-13T05:33:44.136Z,1
2023-04-13T05:36:10.831Z,1.1
2023-04-13T05:38:36.093Z,1
2023-04-13T05:41:02.746Z,0.8
2023-04-13T05:43:29.425Z,0.8
2023-04-13T05:45:56.108Z,0.8
2023-04-13T05:48:22.795Z,1.2
2023-04-13T05:50:49.476Z,0.8
2023-04-13T05:53:16.153Z,1.2
2023-04-13T05:55:42.838Z,0.7
2023-04-13T05:58:09.515Z,1.3
2023-04-13T06:00:36.219Z,0.9
2023-04-13T06:03:02.901Z,0.8
2023-04-13T06:05:29.594Z,1.4
2023-04-13T06:07:56.267Z,0.8
2023-04-13T06:10:21.484Z,1.3
2023-04-13T06:12:48.166Z,1
2023-04-13T06:15:14.870Z,0.9
2023-04-13T06:17:41.540Z,0.8
2023-04-13T06:20:08.262Z,1
2023-04-13T06:22:34.907Z,0.8
2023-04-13T06:25:01.601Z,1
2023-04-13T06:27:28.277Z,1
2023-04-13T06:29:54.967Z,1
2023-04-13T06:32:21.655Z,1.2
2023-04-13T06:34:48.363Z,1.7
2023-04-13T06:37:15.015Z,1.4
2023-04-13T06:39:41.716Z,1.2
2023-04-13T06:42:08.396Z,1.3
2023-04-13T06:44:35.081Z,1
2023-04-13T06:47:01.772Z,1.8
2023-04-13T06:49:27.002Z,1
2023-04-13T06:51:53.671Z,1
2023-04-13T06:54:20.365Z,0.8
2023-04-13T06:56:47.044Z,0.8
2023-04-13T06:59:13.729Z,1
2023-04-13T07:01:40.423Z,1.4
2023-04-13T07:04:07.114Z,1
2023-04-13T07:06:33.785Z,0.9
2023-04-13T07:09:00.470Z,1
2023-04-13T07:11:27.149Z,0.8
2023-04-13T07:13:53.847Z,1
2023-04-13T07:16:20.532Z,1.2
2023-04-13T07:18:47.210Z,1
2023-04-13T07:21:12.439Z,0.8
2023-04-13T07:23:39.126Z,1
2023-04-13T07:26:05.806Z,0.9
2023-04-13T07:28:32.496Z,0.9
2023-04-13T07:30:59.188Z,1
2023-04-13T07:33:25.857Z,0.8
2023-04-13T07:35:52.552Z,0.7
2023-04-13T07:38:19.239Z,1.2
2023-04-13T07:40:45.924Z,1.2
2023-04-13T07:43:12.662Z,1.2
2023-04-13T07:45:39.343Z,1
2023-04-13T07:48:06.017Z,0.8
2023-04-13T07:50:32.659Z,1.2
2023-04-13T07:52:59.347Z,1.1
2023-04-13T07:55:24.568Z,1
2023-04-13T07:57:51.267Z,1
2023-04-13T08:00:17.935Z,0.9
2023-04-13T08:02:44.611Z,0.8
2023-04-13T08:05:11.302Z,1
2023-04-13T08:07:38.033Z,0.7
2023-04-13T08:10:04.673Z,0.9
2023-04-13T08:12:31.398Z,1
2023-04-13T08:17:23.330Z,1.1
2023-04-13T08:19:48.520Z,0.8
2023-04-13T08:22:15.220Z,1.2
2023-04-13T08:27:08.579Z,1.3
2023-04-13T08:29:35.264Z,1
2023-04-13T08:32:01.965Z,1.2
2023-04-13T08:34:28.669Z,0.8
2023-04-13T08:36:55.320Z,1.1
2023-04-13T08:39:22.016Z,1.5
2023-04-13T08:41:48.703Z,0.8
2023-04-13T08:44:15.398Z,1.4
2023-04-13T08:46:42.053Z,0.8
2023-04-13T08:49:08.745Z,1.3
2023-04-13T08:54:00.704Z,1.3
2023-04-13T08:56:25.916Z,1.4
2023-04-13T08:58:51.158Z,1.2
2023-04-13T09:03:44.505Z,1.5
2023-04-13T09:08:38.426Z,1.2
2023-04-13T09:11:04.619Z,1.2
2023-04-13T09:13:31.450Z,1.2
2023-04-13T09:15:58.073Z,1.5
2023-04-13T09:18:24.705Z,1.6
2023-04-13T09:20:51.315Z,1.2
2023-04-13T09:23:18.125Z,1.2
2023-04-13T09:25:44.696Z,1.4
2023-04-13T09:28:09.965Z,1.2
2023-04-13T09:30:35.299Z,1.2
2023-04-13T09:33:01.897Z,1.6
2023-04-13T09:35:28.514Z,1.2
2023-04-13T09:37:55.224Z,1.3
2023-04-13T09:40:21.914Z,1.4
2023-04-13T09:42:48.572Z,1.4
2023-04-13T09:47:41.978Z,1
2023-04-13T09:50:08.635Z,1.4
2023-04-13T09:52:35.321Z,1.3
2023-04-13T09:55:02.022Z,1
2023-04-13T09:57:28.689Z,2.1
2023-04-13T09:59:55.353Z,1.4
2023-04-13T10:02:20.569Z,1
2023-04-13T10:04:47.271Z,1.1
2023-04-13T10:07:13.957Z,1.2
2023-04-13T10:09:40.696Z,1.1
2023-04-13T10:12:07.319Z,1
2023-04-13T10:14:33.998Z,1.1
2023-04-13T10:17:00.842Z,1.5
2023-04-13T10:19:27.396Z,1.1
2023-04-13T10:21:52.634Z,1.3
2023-04-13T10:24:19.312Z,1.5
2023-04-13T10:26:44.521Z,1.2
2023-04-13T10:29:11.216Z,1.3
2023-04-13T10:31:37.891Z,1.1
2023-04-13T10:34:04.570Z,1.3
2023-04-13T10:36:31.276Z,1.4
2023-04-13T10:38:57.958Z,0.7
2023-04-13T10:41:24.635Z,1.2
2023-04-13T10:43:51.319Z,1.2
2023-04-13T10:46:18.051Z,1
2023-04-13T10:48:43.255Z,1.5
2023-04-13T10:51:08.463Z,1.4
2023-04-13T10:53:35.191Z,1.7
2023-04-13T10:56:01.844Z,2.1
2023-04-13T10:58:28.533Z,1.3
2023-04-13T11:00:55.237Z,1.2
2023-04-13T11:03:21.938Z,1.5
2023-04-13T11:05:48.573Z,1.5
2023-04-13T11:08:15.267Z,1.2
2023-04-13T11:10:42.019Z,1.2
2023-04-13T11:13:08.643Z,1.2
2023-04-13T11:15:35.321Z,1
2023-04-13T11:20:28.693Z,1.5
2023-04-13T11:22:53.927Z,1.2
2023-04-13T11:25:20.643Z,1.1
2023-04-13T11:30:13.955Z,1.2
2023-04-13T11:32:40.792Z,2
2023-04-13T11:35:05.915Z,1.2
2023-04-13T11:37:31.114Z,1.5
2023-04-13T11:39:57.822Z,1.9
2023-04-13T11:42:24.488Z,1.6
2023-04-13T11:44:51.242Z,1.6
2023-04-13T11:47:17.892Z,1.9
2023-04-13T11:49:44.540Z,1.3
2023-04-13T11:52:11.270Z,1
2023-04-13T11:54:37.921Z,1.7
2023-04-13T11:57:04.643Z,1.4
2023-04-13T11:59:31.277Z,1.5
2023-04-13T12:01:56.684Z,1.2
2023-04-13T12:04:21.866Z,1.2
2023-04-13T12:06:48.511Z,1.3
2023-04-13T12:09:15.134Z,1.2
2023-04-13T12:11:41.811Z,2.5
2023-04-13T12:14:08.476Z,1.5
2023-04-13T12:16:35.184Z,2.3
2023-04-13T12:19:01.862Z,1.7
2023-04-13T12:21:28.553Z,1.7
2023-04-13T12:23:55.245Z,1.5
2023-04-13T12:31:15.282Z,1.7
2023-04-13T12:33:41.972Z,1.4
2023-04-13T12:36:08.642Z,1.7
2023-04-13T12:38:35.338Z,1.6
2023-04-13T12:41:00.651Z,1.3
2023-04-13T12:43:25.828Z,1.7
2023-04-13T12:48:19.213Z,1.4
2023-04-13T12:50:45.855Z,1.3
2023-04-13T12:53:12.620Z,1.9
2023-04-13T12:55:39.311Z,1.6
2023-04-13T12:58:06.031Z,1.3
2023-04-13T13:00:32.745Z,1.5
2023-04-13T13:02:59.393Z,1
2023-04-13T13:05:25.982Z,1.4
2023-04-13T13:07:52.652Z,1.4
2023-04-13T13:10:19.343Z,0.9
2023-04-13T13:12:46.121Z,0.8
2023-04-13T13:15:11.366Z,0.8
2023-04-13T13:17:38.101Z,0.6
2023-04-13T13:20:04.808Z,0.7
2023-04-13T13:22:31.340Z,0.7
2023-04-13T13:24:58.074Z,0.5
2023-04-13T13:27:24.685Z,0.6
2023-04-13T13:29:51.584Z,0.6
2023-04-13T13:32:18.036Z,0.4
2023-04-13T13:34:44.738Z,0.7
2023-04-13T13:37:09.987Z,0.8
2023-04-13T13:39:35.270Z,0.7
2023-04-13T13:42:02.032Z,0.8
2023-04-13T13:44:28.574Z,0.8
2023-04-13T13:46:55.257Z,1
2023-04-13T13:51:48.734Z,0.8
2023-04-13T13:54:15.410Z,1
2023-04-13T13:56:42.112Z,0.8
2023-04-13T13:59:08.904Z,0.8
2023-04-13T14:01:35.364Z,1
2023-04-13T14:04:02.088Z,1
2023-04-13T14:06:28.713Z,1.1
2023-04-13T14:08:55.542Z,1.2
2023-04-13T14:11:20.665Z,1.4
2023-04-13T14:13:47.339Z,1.1
2023-04-13T14:16:14.010Z,1
2023-04-13T14:18:40.774Z,1.2
2023-04-13T14:21:07.390Z,1.5
2023-04-13T14:23:34.062Z,1.7
2023-04-13T14:26:00.779Z,1.7
2023-04-13T14:28:27.466Z,1.5
2023-04-13T14:30:54.282Z,1.4
2023-04-13T14:33:20.839Z,1.5
2023-04-13T14:35:47.492Z,1.6
2023-04-13T14:38:14.203Z,1.2
2023-04-13T14:40:40.858Z,1.4
2023-04-13T14:43:07.620Z,1.2
2023-04-13T14:45:33.069Z,1
2023-04-13T14:47:59.698Z,0.8
2023-04-13T14:50:26.209Z,1
2023-04-13T14:52:52.832Z,0.8
2023-04-13T14:55:19.518Z,0.8
2023-04-13T14:57:46.395Z,0.9
2023-04-13T15:00:12.876Z,0.7
2023-04-13T15:02:39.576Z,1
2023-04-13T15:05:06.336Z,0.8
2023-04-13T15:07:33.034Z,1.1
2023-04-13T15:09:59.645Z,1.1
2023-04-13T15:12:26.297Z,1.2
2023-04-13T15:14:53.005Z,0.8
2023-04-13T15:17:19.732Z,1
2023-04-13T15:19:44.882Z,0.8
2023-04-13T15:22:11.643Z,0.8
2023-04-13T15:24:38.427Z,0.8
2023-04-13T15:27:05.086Z,0.8
2023-04-13T15:29:31.790Z,0.5
2023-04-13T15:31:58.327Z,0.5
2023-04-13T15:34:25.113Z,0.4
2023-04-13T15:36:51.846Z,0.5
2023-04-13T15:39:18.492Z,0.5
2023-04-13T15:41:45.068Z,0.5
2023-04-13T15:44:11.743Z,0.6
2023-04-13T15:46:38.529Z,0.6
2023-04-13T15:49:05.289Z,0.4
2023-04-13T15:51:30.427Z,0.4
2023-04-13T15:53:57.030Z,0.7
2023-04-13T15:56:23.796Z,0.7
2023-04-13T16:01:17.232Z,0.8
2023-04-13T16:03:43.743Z,0.8
2023-04-13T16:08:37.202Z,0.8
2023-04-13T16:11:03.857Z,1.3
2023-04-13T16:13:30.615Z,1.2
2023-04-13T16:15:57.274Z,1
2023-04-13T16:18:24.013Z,1.1
2023-04-13T16:20:50.740Z,1.1
2023-04-13T16:23:17.392Z,0.9
2023-04-13T16:25:42.599Z,0.7
2023-04-13T16:28:09.170Z,0.8
2023-04-13T16:30:34.482Z,0.8
2023-04-13T16:33:01.115Z,0.8
2023-04-13T16:37:54.419Z,1
2023-04-13T16:42:46.394Z,1
2023-04-13T16:45:13.041Z,0.8
2023-04-13T16:50:05.141Z,1.2
2023-04-13T16:52:30.277Z,0.8
2023-04-13T16:54:55.445Z,1.3
2023-04-13T16:57:22.148Z,1
2023-04-13T16:59:48.988Z,1.2
2023-04-13T17:02:15.638Z,1
2023-04-13T17:04:42.180Z,0.8
2023-04-13T17:07:08.863Z,1
2023-04-13T17:09:35.640Z,1
2023-04-13T17:12:02.245Z,1.1
2023-04-13T17:14:28.996Z,1.1
2023-04-13T17:16:55.743Z,1.1
2023-04-13T17:19:21.032Z,1.7
2023-04-13T17:21:47.609Z,1.8
2023-04-13T17:24:14.249Z,1.7
2023-04-13T17:26:40.905Z,2
2023-04-13T17:29:06.124Z,1.6
2023-04-13T17:31:32.881Z,1.3
2023-04-13T17:33:59.504Z,2.1
2023-04-13T17:36:26.196Z,1.3
2023-04-13T17:38:52.876Z,1.3
2023-04-13T17:41:20.201Z,1.5
2023-04-13T17:43:46.756Z,1.3
2023-04-13T17:46:12.926Z,1.2
2023-04-13T17:48:39.616Z,1
2023-04-13T17:51:06.333Z,1.1
2023-04-13T17:53:33.047Z,1.1
2023-04-13T17:55:59.687Z,1.2
2023-04-13T17:58:26.355Z,1.5
2023-04-13T18:00:51.570Z,1.3
2023-04-13T18:03:18.281Z,1.7
2023-04-13T18:05:44.942Z,1.8
2023-04-13T18:08:11.641Z,2.1
2023-04-13T18:10:38.335Z,2.6
2023-04-13T18:13:05.050Z,3.1
2023-04-13T18:15:31.687Z,3.1
2023-04-13T18:17:58.379Z,4
2023-04-13T18:20:25.103Z,6.1
2023-04-13T18:22:51.749Z,3.3
2023-04-13T18:25:18.431Z,1.7
2023-04-13T18:27:45.133Z,1.7
2023-04-13T18:30:11.838Z,1.5
2023-04-13T18:32:38.478Z,1.7
2023-04-13T18:35:03.854Z,1.5
2023-04-13T18:37:30.412Z,1.6
2023-04-13T18:39:57.082Z,1.8
2023-04-13T18:42:23.829Z,2.8
2023-04-13T18:44:50.460Z,3.3
2023-04-13T18:47:17.141Z,2.2
2023-04-13T18:49:43.823Z,2.1
2023-04-13T18:52:10.514Z,2.6
2023-04-13T18:54:37.266Z,1.8
2023-04-13T18:57:03.883Z,2
2023-04-13T18:59:30.569Z,2
2023-04-13T19:01:57.269Z,1.9
2023-04-13T19:04:23.938Z,2
2023-04-13T19:06:49.156Z,2.1
2023-04-13T19:09:15.852Z,2.1
2023-04-13T19:11:42.510Z,2.1
2023-04-13T19:14:09.215Z,1.9
2023-04-13T19:16:35.893Z,1.7
2023-04-13T19:19:02.576Z,2
2023-04-13T19:21:29.257Z,1.9
2023-04-13T19:23:55.947Z,1.8
2023-04-13T19:26:22.669Z,1.7
2023-04-13T19:28:49.444Z,2
2023-04-13T19:31:15.999Z,1.9
2023-04-13T19:33:42.689Z,1.8
2023-04-13T19:36:09.378Z,1.9
2023-04-13T19:38:34.602Z,2
2023-04-13T19:41:01.273Z,2.3
2023-04-13T19:43:27.965Z,2.6
2023-04-13T19:45:54.649Z,2.6
2023-04-13T19:48:21.316Z,3.3
2023-04-13T19:50:48.020Z,3.4
2023-04-13T19:53:14.690Z,2.7
2023-04-13T19:55:41.416Z,2.8
2023-04-13T19:58:08.070Z,3.5
2023-04-13T20:00:34.755Z,4.3
2023-04-13T20:03:01.442Z,4.7
2023-04-13T20:05:28.131Z,3.7
2023-04-13T20:07:54.909Z,4.1
2023-04-13T20:10:20.024Z,4.9
2023-04-13T20:12:46.761Z,4.6
2023-04-13T20:15:13.460Z,4.3
2023-04-13T20:17:40.182Z,4.5
2023-04-13T20:20:06.774Z,4.8
2023-04-13T20:22:33.434Z,5.2
2023-04-13T20:25:00.217Z,4.4
2023-04-13T20:27:26.867Z,5.1
2023-04-13T20:29:53.526Z,5.1
2023-04-13T20:32:20.201Z,4.7
2023-04-13T20:34:46.881Z,4.8
2023-04-13T20:37:13.547Z,4.9
2023-04-13T20:39:40.275Z,4.4
2023-04-13T20:42:05.463Z,4.1
2023-04-13T20:44:32.151Z,4.1
2023-04-13T20:46:58.841Z,3.7
2023-04-13T20:49:25.534Z,4.7
2023-04-13T20:51:52.211Z,4.9
2023-04-13T20:54:18.899Z,5.1
2023-04-13T20:56:45.591Z,4.9
2023-04-13T20:59:12.286Z,6.9
2023-04-13T21:01:38.942Z,7.3
2023-04-13T21:06:32.321Z,7.3
2023-04-13T21:08:59.013Z,5.7
2023-04-13T21:11:25.697Z,5.1
2023-04-13T21:13:52.386Z,5.9
2023-04-13T21:16:17.608Z,5.3
2023-04-13T21:18:44.292Z,5.2
2023-04-13T21:21:11.022Z,5.4
2023-04-13T21:23:37.660Z,5.2
2023-04-13T21:26:04.362Z,5.2
2023-04-13T21:28:31.032Z,6.1
2023-04-13T21:30:57.728Z,5.6
2023-04-13T21:33:24.408Z,5.3
2023-04-13T21:35:51.094Z,6.9
2023-04-13T21:38:17.771Z,6.1
2023-04-13T21:40:44.446Z,6
2023-04-13T21:43:11.165Z,5.5
2023-04-13T21:45:37.836Z,5.6
2023-04-13T21:48:03.176Z,6
2023-04-13T21:50:29.920Z,5.3
2023-04-13T21:52:56.416Z,4.9
2023-04-13T21:55:23.093Z,4.7
2023-04-13T21:57:49.803Z,5.4
2023-04-13T22:00:16.478Z,5.1
2023-04-13T22:02:43.133Z,5.8
2023-04-13T22:05:09.832Z,5.4
2023-04-13T22:07:36.574Z,5.3
2023-04-13T22:12:29.913Z,5.2
2023-04-13T22:14:56.580Z,4
2023-04-13T22:17:23.269Z,4.5
2023-04-13T22:19:48.500Z,4.8
2023-04-13T22:22:15.227Z,4.3
2023-04-13T22:24:41.859Z,4.3
2023-04-13T22:27:08.544Z,4.5
2023-04-13T22:29:35.222Z,4.1
2023-04-13T22:32:01.907Z,4.2
2023-04-13T22:34:28.590Z,4.6
2023-04-13T22:36:55.275Z,4.6
2023-04-13T22:39:21.960Z,5.2
2023-04-13T22:41:48.672Z,4.8
2023-04-13T22:44:15.330Z,4.7
2023-04-13T22:46:42.007Z,5.3
2023-04-13T22:49:08.697Z,4.2
2023-04-13T22:51:33.923Z,4.1
2023-04-13T22:54:00.602Z,3.9
2023-04-13T22:56:27.297Z,3.9
2023-04-13T22:58:53.985Z,3.9
2023-04-13T23:01:20.660Z,3.2
2023-04-13T23:03:47.342Z,3.6
2023-04-13T23:06:14.032Z,3.4
2023-04-13T23:08:40.709Z,3.8
2023-04-13T23:11:07.460Z,4.3
2023-04-13T23:13:34.091Z,3.5
2023-04-13T23:16:00.843Z,2.8
2023-04-13T23:18:27.447Z,3.5
2023-04-13T23:20:54.210Z,4.2
2023-04-13T23:23:19.402Z,2.8
2023-04-13T23:25:46.050Z,2.4
2023-04-13T23:28:12.765Z,2.5
2023-04-13T23:33:06.252Z,2.3
2023-04-13T23:35:32.801Z,2.8
2023-04-13T23:37:59.478Z,2.1
2023-04-13T23:40:26.168Z,2.9
2023-04-13T23:42:52.843Z,2.9
2023-04-13T23:45:19.582Z,2.6
2023-04-13T23:47:46.221Z,2.6
2023-04-13T23:50:12.899Z,2.1
2023-04-13T23:52:39.661Z,2.4
2023-04-13T23:55:04.871Z,2.1
2023-04-13T23:57:31.512Z,2.4
2023-04-13T23:59:58.209Z,2.5
